Time;durP1;ratioP1;P1;durP2;ratioP2;P2;SDS_P1;SDS_P2;PMS_P1;PMS_P2;Temp;Humidity;BMP_temperature;BMP_pressure;BME280_temperature;BME280_humidity;BME280_pressure;Samples;Min_cycle;Max_cycle;Signal;HPM_P1;HPM_P2
2023/10/28 00:01:12;;;;;;;11.05;2.67;;;10.70;99.90;;;;;;5007668;28;20025;-83
2023/10/28 00:03:39;;;;;;;8.60;2.67;;;10.70;99.90;;;;;;5022364;28;20103;-84
2023/10/28 00:06:05;;;;;;;8.27;2.65;;;10.70;99.90;;;;;;5026081;28;20080;-84
2023/10/28 00:08:30;;;;;;;10.82;3.00;;;10.80;99.90;;;;;;5024445;28;20033;-83
2023/10/28 00:10:56;;;;;;;13.95;2.65;;;10.80;99.90;;;;;;5024566;28;20034;-83
2023/10/28 00:13:22;;;;;;;10.98;2.40;;;10.90;99.90;;;;;;5024717;28;20031;-83
2023/10/28 00:15:48;;;;;;;5.20;2.20;;;10.90;99.90;;;;;;5009562;28;20029;-84
2023/10/28 00:18:15;;;;;;;18.40;4.35;;;10.80;99.90;;;;;;5022594;28;20225;-83
2023/10/28 00:20:43;;;;;;;5.82;2.28;;;10.90;99.90;;;;;;5028371;28;20025;-83
2023/10/28 00:23:09;;;;;;;7.65;2.33;;;10.80;99.90;;;;;;5027607;28;20297;-83
2023/10/28 00:25:35;;;;;;;10.88;2.78;;;10.80;99.90;;;;;;5023620;28;20036;-81
2023/10/28 00:28:01;;;;;;;8.07;2.90;;;10.80;99.90;;;;;;5026017;28;20022;-83
2023/10/28 00:30:26;;;;;;;13.50;3.55;;;10.70;99.90;;;;;;5022888;28;20041;-84
2023/10/28 00:32:53;;;;;;;19.17;3.50;;;10.80;99.90;;;;;;5027487;28;20112;-83
2023/10/28 00:35:21;;;;;;;7.20;2.60;;;10.70;99.90;;;;;;5028304;28;20033;-84
2023/10/28 00:37:47;;;;;;;6.38;2.45;;;10.80;99.90;;;;;;5026266;28;20099;-85
2023/10/28 00:40:13;;;;;;;14.00;2.83;;;10.80;99.90;;;;;;5028503;28;20362;-84
2023/10/28 00:42:39;;;;;;;11.20;2.63;;;10.80;99.90;;;;;;5023655;28;20033;-82
2023/10/28 00:45:08;;;;;;;9.93;2.65;;;10.70;99.90;;;;;;5019990;28;20024;-82
2023/10/28 00:47:34;;;;;;;8.95;2.45;;;10.70;99.90;;;;;;5025341;28;20037;-82
2023/10/28 00:50:06;;;;;;;13.98;2.70;;;10.70;99.90;;;;;;5023244;28;20103;-83
2023/10/28 00:52:31;;;;;;;12.60;2.80;;;10.60;99.90;;;;;;5022572;28;20065;-81
2023/10/28 00:54:57;;;;;;;5.60;2.28;;;10.70;99.90;;;;;;5027756;28;20122;-85
2023/10/28 00:57:25;;;;;;;8.80;2.60;;;10.60;99.90;;;;;;5026898;28;20411;-84
2023/10/28 00:59:53;;;;;;;8.98;3.08;;;10.60;99.90;;;;;;5025314;28;20037;-82
2023/10/28 01:02:18;;;;;;;11.52;2.33;;;10.60;99.90;;;;;;5024727;28;20058;-83
2023/10/28 01:04:45;;;;;;;10.93;2.40;;;10.50;99.90;;;;;;5016914;28;20052;-85
2023/10/28 01:07:10;;;;;;;11.45;2.72;;;10.60;99.90;;;;;;5025293;28;20029;-83
2023/10/28 01:09:48;;;;;;;18.83;4.25;;;10.60;99.90;;;;;;5021994;28;20103;-84
2023/10/28 01:12:15;;;;;;;9.18;2.58;;;10.60;99.90;;;;;;5027124;28;20025;-82
2023/10/28 01:14:42;;;;;;;13.55;2.83;;;10.50;99.90;;;;;;5017119;28;20544;-83
2023/10/28 01:17:08;;;;;;;12.38;3.25;;;10.50;99.90;;;;;;5026468;28;20041;-83
2023/10/28 01:19:34;;;;;;;8.52;3.42;;;10.40;99.90;;;;;;5023340;28;20029;-84
2023/10/28 01:22:01;;;;;;;11.85;3.28;;;10.40;99.90;;;;;;5020434;28;20116;-83
2023/10/28 01:24:32;;;;;;;12.48;2.90;;;10.40;99.90;;;;;;5020567;28;20056;-84
2023/10/28 01:26:57;;;;;;;10.23;2.40;;;10.30;99.90;;;;;;5016666;28;20025;-83
2023/10/28 01:29:24;;;;;;;12.07;3.33;;;10.40;99.90;;;;;;5023505;28;20022;-83
2023/10/28 01:31:50;;;;;;;11.35;2.63;;;10.30;99.90;;;;;;5017758;28;20069;-83
2023/10/28 01:34:16;;;;;;;6.15;2.75;;;10.30;99.90;;;;;;5025371;28;20059;-83
2023/10/28 01:36:43;;;;;;;10.15;3.33;;;10.30;99.90;;;;;;5026373;28;20033;-83
2023/10/28 01:39:12;;;;;;;12.75;3.80;;;10.30;99.90;;;;;;5012563;28;20051;-84
2023/10/28 01:41:37;;;;;;;7.32;2.47;;;10.20;99.90;;;;;;5007125;28;20022;-85
2023/10/28 01:44:04;;;;;;;9.30;2.90;;;10.20;99.90;;;;;;5022136;28;20028;-84
2023/10/28 01:46:30;;;;;;;15.25;3.17;;;10.20;99.90;;;;;;5023866;28;20087;-85
2023/10/28 01:48:56;;;;;;;12.35;3.33;;;10.20;99.90;;;;;;5022428;28;20033;-85
2023/10/28 01:51:21;;;;;;;10.40;3.53;;;10.20;99.90;;;;;;5018334;28;20018;-87
2023/10/28 01:53:47;;;;;;;9.93;2.78;;;10.10;99.90;;;;;;5023802;28;20045;-84
2023/10/28 01:56:13;;;;;;;12.48;2.42;;;10.10;99.90;;;;;;5025939;28;20068;-84
2023/10/28 01:58:38;;;;;;;14.02;2.83;;;10.10;99.90;;;;;;5023659;28;20064;-86
2023/10/28 02:01:04;;;;;;;9.40;3.05;;;10.10;99.90;;;;;;5016241;28;20067;-82
2023/10/28 02:03:30;;;;;;;9.50;3.00;;;10.20;99.90;;;;;;5019947;28;20129;-86
2023/10/28 02:05:56;;;;;;;12.13;2.72;;;10.20;99.90;;;;;;5023887;28;20476;-84
2023/10/28 02:08:21;;;;;;;10.75;2.40;;;10.20;99.90;;;;;;5021089;28;20038;-84
2023/10/28 02:10:47;;;;;;;11.52;2.35;;;10.20;99.90;;;;;;5024730;28;20025;-84
2023/10/28 02:13:13;;;;;;;11.20;2.55;;;10.20;99.90;;;;;;5020156;28;20018;-84
2023/10/28 02:15:38;;;;;;;18.25;3.22;;;10.20;99.90;;;;;;5023587;28;20497;-84
2023/10/28 02:18:04;;;;;;;12.85;2.65;;;10.20;99.90;;;;;;5026369;28;20433;-83
2023/10/28 02:20:30;;;;;;;12.52;3.05;;;10.10;99.90;;;;;;5024528;28;20436;-83
2023/10/28 02:22:56;;;;;;;13.70;2.53;;;10.10;99.90;;;;;;5016386;28;20049;-84
2023/10/28 02:25:23;;;;;;;19.80;4.03;;;10.10;99.90;;;;;;5025925;28;20056;-84
2023/10/28 02:27:49;;;;;;;14.60;2.97;;;10.10;99.90;;;;;;5016601;28;20025;-81
2023/10/28 02:30:16;;;;;;;10.45;2.72;;;10.10;99.90;;;;;;5019610;28;20105;-84
2023/10/28 02:32:41;;;;;;;14.43;2.78;;;10.10;99.90;;;;;;5022804;28;20357;-84
2023/10/28 02:35:07;;;;;;;12.15;3.55;;;10.10;99.90;;;;;;5027043;28;20369;-83
2023/10/28 02:37:33;;;;;;;12.27;3.22;;;10.00;99.90;;;;;;5019326;28;20038;-83
2023/10/28 02:39:58;;;;;;;9.27;2.88;;;10.00;99.90;;;;;;5027560;28;20109;-84
2023/10/28 02:42:24;;;;;;;11.25;2.97;;;10.00;99.90;;;;;;5030386;28;20116;-84
2023/10/28 02:44:50;;;;;;;5.20;2.53;;;9.90;99.90;;;;;;5026765;28;20048;-83
2023/10/28 02:47:16;;;;;;;16.20;2.65;;;9.90;99.90;;;;;;5030202;28;20028;-84
2023/10/28 02:49:42;;;;;;;11.25;2.85;;;9.90;99.90;;;;;;5028520;28;20025;-85
2023/10/28 02:52:09;;;;;;;14.75;2.80;;;9.90;99.90;;;;;;5023547;28;20025;-85
2023/10/28 02:54:35;;;;;;;15.40;3.40;;;9.90;99.90;;;;;;5019085;28;20021;-91
2023/10/28 02:57:01;;;;;;;10.63;2.88;;;9.90;99.90;;;;;;5031342;28;20040;-83
2023/10/28 02:59:27;;;;;;;8.05;2.58;;;9.90;99.90;;;;;;5029584;28;20025;-85
2023/10/28 03:01:53;;;;;;;17.27;3.70;;;10.00;99.90;;;;;;5028693;28;20116;-82
2023/10/28 03:04:19;;;;;;;10.70;2.70;;;10.00;99.90;;;;;;5030816;28;20052;-84
2023/10/28 03:06:45;;;;;;;22.50;2.78;;;10.00;99.90;;;;;;5030791;28;20374;-85
2023/10/28 03:09:11;;;;;;;14.00;2.80;;;10.00;99.90;;;;;;5028336;28;20018;-87
2023/10/28 03:11:40;;;;;;;12.70;2.65;;;10.00;99.90;;;;;;5028889;28;20017;-86
2023/10/28 03:14:05;;;;;;;10.02;2.90;;;10.00;99.90;;;;;;5023427;28;20028;-84
2023/10/28 03:16:31;;;;;;;14.32;3.38;;;10.00;99.90;;;;;;5022906;28;20034;-85
2023/10/28 03:18:57;;;;;;;23.20;3.38;;;10.00;99.90;;;;;;5030815;28;20017;-85
2023/10/28 03:21:23;;;;;;;11.23;2.80;;;10.00;99.90;;;;;;5025096;28;20020;-85
2023/10/28 03:23:49;;;;;;;13.80;3.13;;;10.00;99.90;;;;;;5029681;28;20284;-85
2023/10/28 03:26:15;;;;;;;8.50;3.33;;;10.00;99.90;;;;;;5030114;28;20021;-85
2023/10/28 03:28:41;;;;;;;13.65;2.38;;;10.00;99.90;;;;;;5029947;28;20032;-85
2023/10/28 03:31:09;;;;;;;9.27;2.70;;;10.00;99.90;;;;;;5028781;28;20029;-83
2023/10/28 03:33:36;;;;;;;19.25;4.05;;;10.10;99.90;;;;;;5024389;28;20083;-82
2023/10/28 03:36:01;;;;;;;15.27;3.05;;;10.10;99.90;;;;;;5026838;28;20032;-83
2023/10/28 03:38:27;;;;;;;13.73;2.90;;;10.10;99.90;;;;;;5028427;28;20041;-86
2023/10/28 03:40:56;;;;;;;10.90;3.85;;;10.00;99.90;;;;;;5025457;28;20100;-84
2023/10/28 03:43:22;;;;;;;13.93;2.88;;;10.00;99.90;;;;;;5029680;28;20021;-84
2023/10/28 03:45:48;;;;;;;9.40;2.95;;;10.00;99.90;;;;;;5031444;28;20470;-84
2023/10/28 03:48:14;;;;;;;21.27;3.53;;;10.00;99.90;;;;;;5026089;28;20028;-86
2023/10/28 03:50:40;;;;;;;13.73;2.70;;;9.90;99.90;;;;;;5023841;28;20032;-85
2023/10/28 03:53:06;;;;;;;10.80;2.17;;;9.90;99.90;;;;;;5024172;28;20026;-84
2023/10/28 03:55:32;;;;;;;21.90;2.70;;;9.90;99.90;;;;;;5022341;28;20063;-85
2023/10/28 03:57:58;;;;;;;16.42;3.40;;;9.90;99.90;;;;;;5024226;28;20492;-85
2023/10/28 04:00:23;;;;;;;6.70;2.17;;;9.90;99.90;;;;;;5021283;28;20320;-85
2023/10/28 04:02:52;;;;;;;16.40;3.45;;;9.80;99.90;;;;;;5021271;28;20041;-84
2023/10/28 04:05:18;;;;;;;16.05;2.95;;;9.80;99.90;;;;;;5028404;28;20026;-86
2023/10/28 04:07:45;;;;;;;17.35;2.83;;;9.80;99.90;;;;;;5021786;28;20086;-85
2023/10/28 04:10:10;;;;;;;10.20;2.92;;;9.80;99.90;;;;;;5023602;28;20088;-85
2023/10/28 04:12:39;;;;;;;12.48;2.75;;;9.90;99.90;;;;;;5017653;28;20021;-84
2023/10/28 04:15:05;;;;;;;9.77;2.53;;;9.90;99.90;;;;;;5020300;28;20022;-84
2023/10/28 04:17:31;;;;;;;12.40;2.65;;;9.90;99.90;;;;;;5025975;28;20069;-85
2023/10/28 04:19:57;;;;;;;14.23;2.88;;;9.90;99.90;;;;;;5027091;28;20020;-84
2023/10/28 04:22:24;;;;;;;12.57;3.50;;;9.90;99.90;;;;;;5022919;28;20014;-85
2023/10/28 04:24:50;;;;;;;10.32;2.70;;;9.90;99.90;;;;;;5021821;28;20393;-84
2023/10/28 04:27:16;;;;;;;9.10;2.13;;;9.90;99.90;;;;;;5021388;28;20021;-84
2023/10/28 04:29:41;;;;;;;14.15;2.70;;;9.90;99.90;;;;;;5013900;28;20421;-84
2023/10/28 04:32:07;;;;;;;13.48;2.72;;;10.00;99.90;;;;;;5021305;28;20025;-85
2023/10/28 04:34:32;;;;;;;14.07;3.33;;;10.00;99.90;;;;;;5024257;28;20060;-85
2023/10/28 04:36:58;;;;;;;11.98;2.90;;;10.00;99.90;;;;;;5025407;28;20045;-85
2023/10/28 04:39:24;;;;;;;12.75;2.60;;;10.00;99.90;;;;;;5027594;28;20456;-84
2023/10/28 04:41:52;;;;;;;10.55;2.45;;;10.00;99.90;;;;;;5026791;28;20032;-85
2023/10/28 04:44:18;;;;;;;5.93;1.88;;;10.10;99.90;;;;;;5020233;28;20079;-85
2023/10/28 04:46:43;;;;;;;13.55;2.67;;;10.00;99.90;;;;;;5026309;28;20049;-85
2023/10/28 04:49:12;;;;;;;15.32;2.75;;;10.00;99.90;;;;;;5022259;28;20140;-85
2023/10/28 04:51:38;;;;;;;15.00;2.78;;;9.90;99.90;;;;;;5023017;28;20033;-84
2023/10/28 04:54:04;;;;;;;12.43;2.42;;;9.90;99.90;;;;;;5022650;28;20039;-85
2023/10/28 04:56:30;;;;;;;4.25;1.85;;;9.90;99.90;;;;;;5027477;28;20033;-85
2023/10/28 04:59:02;;;;;;;2.38;1.70;;;9.90;99.90;;;;;;5016143;28;20022;-85
2023/10/28 05:01:29;;;;;;;12.23;2.10;;;9.90;99.90;;;;;;5027167;28;20025;-85
2023/10/28 05:03:54;;;;;;;14.15;1.83;;;9.90;99.90;;;;;;5020295;28;20045;-84
2023/10/28 05:06:20;;;;;;;9.05;3.28;;;9.80;99.90;;;;;;5022992;28;20032;-84
2023/10/28 05:08:47;;;;;;;9.40;2.28;;;9.80;99.90;;;;;;5020715;28;20057;-85
2023/10/28 05:11:16;;;;;;;8.25;2.28;;;9.80;99.90;;;;;;5014268;28;20361;-85
2023/10/28 05:13:42;;;;;;;5.38;1.73;;;9.80;99.90;;;;;;5021447;28;20064;-85
2023/10/28 05:16:11;;;;;;;10.77;2.50;;;9.80;99.90;;;;;;5020182;28;20022;-85
2023/10/28 05:18:37;;;;;;;7.07;1.98;;;9.80;99.90;;;;;;5027094;28;20040;-85
2023/10/28 05:21:04;;;;;;;2.97;1.60;;;9.80;99.90;;;;;;5023511;28;20021;-85
2023/10/28 05:23:30;;;;;;;11.02;1.92;;;9.80;99.90;;;;;;5031796;28;20060;-86
2023/10/28 05:25:56;;;;;;;4.72;1.70;;;9.80;99.90;;;;;;5023373;28;20467;-85
2023/10/28 05:28:21;;;;;;;5.38;2.10;;;9.70;99.90;;;;;;5025198;28;20105;-84
2023/10/28 05:30:47;;;;;;;11.40;2.20;;;9.70;99.90;;;;;;5030380;28;20417;-84
2023/10/28 05:33:13;;;;;;;6.47;2.13;;;9.70;99.90;;;;;;5025817;28;20027;-85
2023/10/28 05:35:39;;;;;;;9.70;1.85;;;9.70;99.90;;;;;;5025716;28;20032;-84
2023/10/28 05:38:05;;;;;;;6.32;2.40;;;9.70;99.90;;;;;;5026537;28;20334;-85
2023/10/28 05:40:30;;;;;;;6.25;1.63;;;9.70;99.90;;;;;;5023896;28;20325;-85
2023/10/28 05:42:56;;;;;;;10.52;3.50;;;9.60;99.90;;;;;;5031159;28;20029;-84
2023/10/28 05:45:22;;;;;;;5.82;2.25;;;9.60;99.90;;;;;;5025284;28;20053;-85
2023/10/28 05:47:47;;;;;;;9.85;2.15;;;9.60;99.90;;;;;;5021691;28;20087;-85
2023/10/28 05:50:13;;;;;;;9.05;1.98;;;9.60;99.90;;;;;;5020831;28;20583;-86
2023/10/28 05:52:39;;;;;;;21.17;2.85;;;9.60;99.90;;;;;;5017358;28;20057;-86
2023/10/28 05:55:06;;;;;;;12.10;2.70;;;9.60;99.90;;;;;;5037212;28;20098;-86
2023/10/28 05:57:31;;;;;;;13.60;3.20;;;9.70;99.90;;;;;;5030520;28;20306;-85
2023/10/28 05:59:57;;;;;;;13.23;2.78;;;9.70;99.90;;;;;;5025730;28;20056;-87
2023/10/28 06:02:24;;;;;;;7.50;2.45;;;9.70;99.90;;;;;;5024992;28;20041;-85
2023/10/28 06:04:50;;;;;;;15.93;2.67;;;9.80;99.90;;;;;;5024133;28;20029;-86
2023/10/28 06:07:16;;;;;;;4.68;1.98;;;9.90;99.90;;;;;;5025519;28;20025;-85
2023/10/28 06:09:42;;;;;;;14.48;2.78;;;9.90;99.90;;;;;;5023395;28;20382;-86
2023/10/28 06:12:08;;;;;;;8.55;2.38;;;9.90;99.90;;;;;;5029386;28;20021;-86
2023/10/28 06:14:37;;;;;;;6.80;1.88;;;10.00;99.90;;;;;;5030068;28;20075;-87
2023/10/28 06:17:03;;;;;;;9.38;1.73;;;10.00;99.90;;;;;;5025251;28;20527;-85
2023/10/28 06:19:29;;;;;;;14.45;2.72;;;10.00;99.90;;;;;;5025294;28;20029;-85
2023/10/28 06:21:55;;;;;;;7.55;2.38;;;10.00;99.90;;;;;;5019126;28;20140;-86
2023/10/28 06:24:20;;;;;;;14.68;2.20;;;10.00;99.90;;;;;;5024487;28;20104;-85
2023/10/28 06:26:46;;;;;;;7.93;2.22;;;10.00;99.90;;;;;;5023662;28;20029;-84
2023/10/28 06:29:12;;;;;;;9.80;2.03;;;10.00;99.90;;;;;;5006809;28;20376;-87
2023/10/28 06:31:39;;;;;;;6.55;2.05;;;10.00;99.90;;;;;;5020024;28;20071;-85
2023/10/28 06:34:05;;;;;;;8.68;1.90;;;10.00;99.90;;;;;;5026263;28;20112;-87
2023/10/28 06:36:33;;;;;;;4.70;1.20;;;10.10;99.90;;;;;;5005219;28;20060;-86
2023/10/28 06:38:58;;;;;;;10.98;1.55;;;10.10;99.90;;;;;;5021056;28;20243;-86
2023/10/28 06:41:25;;;;;;;5.70;1.60;;;10.10;99.90;;;;;;5002543;28;20021;-86
2023/10/28 06:43:52;;;;;;;8.25;1.70;;;10.10;99.90;;;;;;5023087;28;20025;-86
2023/10/28 06:46:19;;;;;;;5.03;1.63;;;10.10;99.90;;;;;;5021887;28;20097;-84
2023/10/28 06:48:46;;;;;;;5.05;1.40;;;10.20;99.90;;;;;;5023021;28;20112;-85
2023/10/28 06:51:12;;;;;;;4.63;1.30;;;10.30;99.90;;;;;;5019229;28;20259;-86
2023/10/28 06:53:42;;;;;;;6.75;1.67;;;10.30;99.90;;;;;;5021552;28;20032;-86
2023/10/28 06:56:08;;;;;;;4.88;1.73;;;10.30;99.90;;;;;;5025641;28;20433;-87
2023/10/28 06:58:33;;;;;;;7.63;1.88;;;10.40;99.90;;;;;;5022980;28;20037;-84
2023/10/28 07:00:59;;;;;;;5.90;1.65;;;10.40;99.90;;;;;;5018838;28;20022;-86
2023/10/28 07:03:25;;;;;;;4.20;1.70;;;10.40;99.90;;;;;;5013932;28;20045;-85
2023/10/28 07:05:50;;;;;;;3.70;1.88;;;10.40;99.90;;;;;;5026325;28;20017;-86
2023/10/28 07:08:18;;;;;;;1.95;1.25;;;10.40;99.90;;;;;;5012269;28;20345;-86
2023/10/28 07:10:47;;;;;;;4.85;1.65;;;10.40;99.90;;;;;;5016629;28;20036;-86
2023/10/28 07:13:14;;;;;;;4.93;1.70;;;10.40;99.90;;;;;;5016567;28;20056;-85
2023/10/28 07:15:40;;;;;;;7.45;1.73;;;10.40;99.90;;;;;;5023975;28;20103;-85
2023/10/28 07:18:07;;;;;;;1.95;1.20;;;10.40;99.90;;;;;;5020399;28;20135;-86
2023/10/28 07:20:33;;;;;;;6.88;1.90;;;10.40;99.90;;;;;;5004559;28;20123;-86
2023/10/28 07:23:02;;;;;;;6.35;2.28;;;10.40;99.90;;;;;;5021972;28;20041;-86
2023/10/28 07:25:28;;;;;;;2.55;1.30;;;10.40;99.90;;;;;;5021598;28;20121;-87
2023/10/28 07:27:54;;;;;;;2.72;1.80;;;10.40;99.90;;;;;;5010731;28;20168;-87
2023/10/28 07:30:20;;;;;;;5.95;1.85;;;10.50;99.90;;;;;;5027701;28;20029;-87
2023/10/28 07:32:45;;;;;;;5.38;2.00;;;10.50;99.90;;;;;;5027269;28;20293;-86
2023/10/28 07:35:11;;;;;;;4.78;2.00;;;10.40;99.90;;;;;;5025870;28;20029;-86
2023/10/28 07:37:36;;;;;;;3.78;1.77;;;10.40;99.90;;;;;;5028965;28;20041;-86
2023/10/28 07:40:03;;;;;;;4.03;1.92;;;10.40;99.90;;;;;;5025996;28;20469;-86
2023/10/28 07:42:29;;;;;;;5.03;1.88;;;10.40;99.90;;;;;;5026019;28;20040;-86
2023/10/28 07:44:55;;;;;;;2.80;1.58;;;10.40;99.90;;;;;;5026686;28;20033;-87
2023/10/28 07:47:20;;;;;;;6.70;1.83;;;10.50;99.90;;;;;;5029350;28;20028;-86
2023/10/28 07:49:46;;;;;;;7.55;2.08;;;10.50;99.90;;;;;;5025174;28;20619;-85
2023/10/28 07:52:11;;;;;;;4.47;1.98;;;10.60;99.90;;;;;;5020453;28;21915;-86
2023/10/28 07:54:37;;;;;;;3.17;1.50;;;10.70;99.90;;;;;;5020732;28;20072;-85
2023/10/28 07:57:04;;;;;;;3.10;1.60;;;10.70;99.90;;;;;;5023888;28;20041;-85
2023/10/28 07:59:30;;;;;;;4.70;1.67;;;10.70;99.90;;;;;;5005652;28;20132;-86
2023/10/28 08:01:57;;;;;;;7.28;1.63;;;10.70;99.90;;;;;;5020605;28;20029;-85
2023/10/28 08:04:24;;;;;;;3.45;1.73;;;10.60;99.90;;;;;;5022416;28;20038;-85
2023/10/28 08:06:50;;;;;;;3.40;1.45;;;10.70;99.90;;;;;;5022719;28;20422;-86
2023/10/28 08:09:16;;;;;;;3.67;1.20;;;10.70;99.90;;;;;;5023725;28;20041;-85
2023/10/28 08:11:42;;;;;;;3.17;1.60;;;10.70;99.90;;;;;;5025844;28;20060;-86
2023/10/28 08:14:08;;;;;;;3.63;1.35;;;10.70;99.90;;;;;;5022050;28;20044;-85
2023/10/28 08:16:38;;;;;;;3.55;1.10;;;10.70;99.90;;;;;;5021355;28;20413;-85
2023/10/28 08:19:03;;;;;;;2.60;0.95;;;10.70;99.90;;;;;;5018717;28;20029;-86
2023/10/28 08:21:29;;;;;;;0.60;0.60;;;10.70;99.90;;;;;;5027031;28;20021;-86
2023/10/28 08:23:55;;;;;;;1.77;0.75;;;10.70;99.90;;;;;;5029519;28;20494;-86
2023/10/28 08:26:21;;;;;;;1.38;1.02;;;10.70;99.90;;;;;;5027228;28;20618;-85
2023/10/28 08:28:46;;;;;;;1.05;0.90;;;10.80;99.90;;;;;;5027155;28;20030;-85
2023/10/28 08:31:12;;;;;;;0.63;0.60;;;10.80;99.90;;;;;;5027197;28;20025;-84
2023/10/28 08:33:41;;;;;;;4.95;0.60;;;10.90;99.90;;;;;;5009107;28;20029;-85
2023/10/28 08:36:08;;;;;;;0.50;0.50;;;11.00;99.90;;;;;;5009220;28;20078;-86
2023/10/28 08:38:38;;;;;;;0.60;0.60;;;11.00;99.90;;;;;;5027149;28;20051;-87
2023/10/28 08:41:05;;;;;;;1.02;0.57;;;11.10;99.90;;;;;;5018830;28;20049;-87
2023/10/28 08:43:35;;;;;;;0.50;0.50;;;11.10;99.90;;;;;;5015055;28;20044;-85
2023/10/28 08:46:03;;;;;;;0.40;0.40;;;11.20;99.90;;;;;;5021547;28;20037;-85
2023/10/28 08:48:38;;;;;;;3.00;0.82;;;11.20;99.90;;;;;;5024776;28;20037;-86
2023/10/28 08:51:08;;;;;;;1.27;0.70;;;11.30;99.90;;;;;;5018494;28;20401;-82
2023/10/28 08:53:36;;;;;;;0.70;0.70;;;11.30;99.90;;;;;;5027532;28;20038;-86
2023/10/28 08:56:03;;;;;;;5.20;1.05;;;11.40;99.90;;;;;;5028449;28;20397;-84
2023/10/28 08:58:29;;;;;;;2.05;0.80;;;11.40;99.90;;;;;;5023835;28;20068;-85
2023/10/28 09:00:59;;;;;;;1.00;0.90;;;11.40;99.90;;;;;;5022040;28;20401;-85
2023/10/28 09:03:26;;;;;;;4.32;1.30;;;11.40;99.90;;;;;;5026796;28;20038;-86
2023/10/28 09:05:53;;;;;;;2.88;0.80;;;11.50;99.90;;;;;;5008247;28;20044;-85
2023/10/28 09:08:19;;;;;;;1.65;1.00;;;11.50;99.90;;;;;;5004594;28;20474;-86
2023/10/28 09:11:11;;;;;;;1.27;1.08;;;11.50;99.90;;;;;;5021860;28;20367;-85
2023/10/28 09:13:38;;;;;;;1.02;0.93;;;11.60;99.90;;;;;;5019668;28;20387;-87
2023/10/28 09:16:05;;;;;;;3.55;1.00;;;11.60;99.90;;;;;;5018436;28;20489;-86
2023/10/28 09:18:38;;;;;;;4.43;1.08;;;11.60;99.90;;;;;;5024357;28;20506;-87
2023/10/28 09:21:05;;;;;;;1.52;0.90;;;11.60;99.90;;;;;;5025503;28;20056;-86
2023/10/28 09:23:30;;;;;;;4.75;0.90;;;11.60;99.90;;;;;;5021494;28;20108;-86
2023/10/28 09:25:56;;;;;;;0.88;0.88;;;11.50;99.90;;;;;;5027144;28;20521;-92
2023/10/28 09:28:22;;;;;;;1.80;1.10;;;11.50;99.90;;;;;;5024407;28;20039;-86
2023/10/28 09:30:48;;;;;;;2.70;1.33;;;11.40;99.90;;;;;;5022676;28;20033;-86
2023/10/28 09:33:17;;;;;;;0.93;0.80;;;11.40;99.90;;;;;;5022272;28;20080;-91
2023/10/28 09:35:45;;;;;;;0.93;0.80;;;11.50;99.90;;;;;;5024755;28;20068;-85
2023/10/28 09:38:14;;;;;;;1.40;0.90;;;11.50;99.90;;;;;;5003578;28;20065;-87
2023/10/28 09:40:40;;;;;;;7.60;1.10;;;11.60;99.90;;;;;;5021949;28;20105;-85
2023/10/28 09:43:10;;;;;;;8.82;2.97;;;11.60;99.90;;;;;;5024664;28;20916;-86
2023/10/28 09:45:37;;;;;;;0.93;0.70;;;11.60;99.90;;;;;;5024252;28;20528;-87
2023/10/28 09:48:14;;;;;;;4.85;2.08;;;11.70;99.90;;;;;;5024564;28;20095;-86
2023/10/28 09:50:50;;;;;;;3.97;1.02;;;11.70;99.90;;;;;;5018568;28;20057;-87
2023/10/28 09:53:21;;;;;;;12.52;2.75;;;11.70;99.90;;;;;;5022779;28;20026;-85
2023/10/28 09:55:49;;;;;;;3.10;1.02;;;11.70;99.90;;;;;;5022455;28;20033;-86
2023/10/28 09:58:21;;;;;;;1.30;1.10;;;11.80;99.90;;;;;;5026676;28;20128;-86
2023/10/28 10:00:49;;;;;;;1.08;0.82;;;11.90;99.90;;;;;;5024500;28;20065;-86
2023/10/28 10:03:44;;;;;;;0.55;0.55;;;11.80;99.90;;;;;;5021517;28;20058;-85
2023/10/28 10:06:11;;;;;;;3.10;1.00;;;11.90;99.90;;;;;;5020978;28;20017;-83
2023/10/28 10:08:49;;;;;;;2.88;0.80;;;11.90;99.90;;;;;;5018869;28;20025;-85
2023/10/28 10:11:22;;;;;;;4.10;0.90;;;11.90;99.90;;;;;;5023504;28;20030;-85
2023/10/28 10:13:47;;;;;;;2.40;1.05;;;11.90;99.90;;;;;;5017091;28;20052;-84
2023/10/28 10:16:36;;;;;;;4.05;1.42;;;11.90;99.90;;;;;;5024654;28;20038;-85
2023/10/28 10:19:10;;;;;;;0.85;0.70;;;11.80;99.90;;;;;;5016575;28;20579;-86
2023/10/28 10:21:36;;;;;;;1.85;1.02;;;11.80;99.90;;;;;;5020814;28;20104;-85
2023/10/28 10:24:04;;;;;;;2.53;1.00;;;11.80;99.90;;;;;;5021338;28;20026;-84
2023/10/28 10:26:32;;;;;;;4.95;1.27;;;11.80;99.90;;;;;;5026140;28;20489;-85
2023/10/28 10:28:59;;;;;;;3.22;1.20;;;11.90;99.90;;;;;;5022658;28;20036;-87
2023/10/28 10:31:30;;;;;;;2.70;0.88;;;12.00;99.90;;;;;;5024023;28;20485;-86
2023/10/28 10:34:09;;;;;;;0.98;0.82;;;12.10;99.90;;;;;;5020432;28;20037;-87
2023/10/28 10:36:43;;;;;;;2.10;0.98;;;12.20;99.90;;;;;;5010432;28;20449;-86
2023/10/28 10:39:14;;;;;;;3.13;1.38;;;12.20;99.90;;;;;;5020837;28;20032;-85
2023/10/28 10:41:41;;;;;;;4.45;1.05;;;12.20;99.90;;;;;;5019341;28;20022;-86
2023/10/28 10:44:46;;;;;;;1.35;0.75;;;12.20;99.90;;;;;;5020418;28;20033;-87
2023/10/28 10:47:13;;;;;;;1.40;0.80;;;12.20;99.90;;;;;;4945594;28;20114;-85
2023/10/28 10:49:39;;;;;;;6.03;4.03;;;12.10;99.90;;;;;;4962853;28;20061;-86
2023/10/28 10:52:06;;;;;;;23.60;13.60;;;12.00;99.90;;;;;;4984187;28;20033;-85
2023/10/28 10:54:38;;;;;;;10.90;7.85;;;11.90;99.90;;;;;;5021138;28;20025;-86
2023/10/28 10:57:06;;;;;;;3.45;1.50;;;11.80;99.90;;;;;;5022144;28;20041;-85
2023/10/28 10:59:38;;;;;;;8.68;3.92;;;11.80;99.90;;;;;;5017798;28;20069;-86
2023/10/28 11:02:05;;;;;;;6.95;3.85;;;11.90;99.90;;;;;;5027342;28;20033;-86
2023/10/28 11:04:34;;;;;;;4.43;1.75;;;11.90;99.90;;;;;;5023383;28;20032;-86
2023/10/28 11:07:01;;;;;;;7.28;3.33;;;11.90;99.90;;;;;;5027732;28;20055;-86
2023/10/28 11:09:27;;;;;;;8.27;1.02;;;12.00;99.90;;;;;;5023692;28;20114;-87
2023/10/28 11:11:53;;;;;;;6.00;2.15;;;12.00;99.90;;;;;;5020478;28;20030;-86
2023/10/28 11:14:19;;;;;;;1.73;1.10;;;12.10;99.90;;;;;;5024156;28;20025;-85
2023/10/28 11:16:45;;;;;;;10.10;3.83;;;12.10;99.90;;;;;;5028030;28;20265;-86
2023/10/28 11:19:11;;;;;;;1.75;1.13;;;12.20;99.90;;;;;;5009223;28;20029;-88
2023/10/28 11:21:39;;;;;;;1.08;0.70;;;12.20;99.90;;;;;;5030835;28;20027;-85
2023/10/28 11:24:06;;;;;;;6.63;3.60;;;12.20;99.90;;;;;;5018617;28;20026;-86
2023/10/28 11:26:33;;;;;;;6.15;2.03;;;12.20;99.90;;;;;;5026360;28;20097;-84
2023/10/28 11:29:00;;;;;;;1.45;0.77;;;12.20;99.90;;;;;;5010024;28;20026;-86
2023/10/28 11:31:30;;;;;;;5.32;0.80;;;12.30;99.90;;;;;;5027890;28;20057;-86
2023/10/28 11:33:57;;;;;;;2.22;0.70;;;12.30;99.90;;;;;;5027558;28;20067;-86
2023/10/28 11:36:24;;;;;;;2.53;1.00;;;12.40;99.90;;;;;;5028189;28;20052;-85
2023/10/28 11:38:49;;;;;;;8.40;1.10;;;12.30;99.90;;;;;;5026921;28;20387;-85
2023/10/28 11:41:15;;;;;;;10.82;2.90;;;12.30;99.90;;;;;;5022500;28;20037;-84
2023/10/28 11:43:41;;;;;;;4.25;2.30;;;12.30;99.90;;;;;;5010860;28;20474;-88
2023/10/28 11:46:07;;;;;;;1.75;0.90;;;12.40;99.90;;;;;;5027770;28;20084;-84
2023/10/28 11:48:35;;;;;;;1.17;1.00;;;12.40;99.90;;;;;;5027546;28;20043;-85
2023/10/28 11:51:01;;;;;;;4.97;1.30;;;12.40;99.90;;;;;;5019669;28;20386;-88
2023/10/28 11:53:28;;;;;;;7.05;1.50;;;12.40;99.90;;;;;;5028386;28;20087;-84
2023/10/28 11:55:55;;;;;;;17.20;10.05;;;12.40;99.90;;;;;;5025489;28;20450;-84
2023/10/28 11:58:24;;;;;;;6.78;1.58;;;12.30;99.90;;;;;;5027679;28;20093;-85
2023/10/28 12:00:53;;;;;;;14.27;3.30;;;12.30;99.90;;;;;;5027932;28;20060;-85
2023/10/28 12:03:20;;;;;;;6.75;1.35;;;12.30;99.90;;;;;;5008214;28;20119;-89
2023/10/28 12:05:46;;;;;;;8.02;1.50;;;12.40;99.90;;;;;;5026978;28;20478;-86
2023/10/28 12:08:12;;;;;;;12.02;1.35;;;12.40;99.90;;;;;;5024523;28;20390;-87
2023/10/28 12:10:43;;;;;;;5.40;1.55;;;12.40;99.90;;;;;;5028296;28;20037;-85
2023/10/28 12:13:10;;;;;;;5.95;2.47;;;12.40;99.90;;;;;;5019134;28;20251;-86
2023/10/28 12:15:36;;;;;;;11.02;2.13;;;12.50;99.90;;;;;;5024752;28;20159;-85
2023/10/28 12:18:01;;;;;;;5.80;2.00;;;12.40;99.90;;;;;;5025837;28;20041;-85
2023/10/28 12:20:27;;;;;;;4.05;1.00;;;12.40;99.90;;;;;;5026570;28;20077;-89
2023/10/28 12:22:53;;;;;;;3.83;1.50;;;12.40;99.90;;;;;;5028317;28;20136;-86
2023/10/28 12:25:18;;;;;;;4.20;2.15;;;12.40;99.90;;;;;;5023461;28;20155;-86
2023/10/28 12:27:44;;;;;;;3.92;1.40;;;12.40;99.90;;;;;;5026245;28;20061;-85
2023/10/28 12:30:10;;;;;;;5.50;1.30;;;12.40;99.90;;;;;;5022346;28;20021;-86
2023/10/28 12:32:36;;;;;;;22.80;9.13;;;12.30;99.90;;;;;;5028140;28;20028;-85
2023/10/28 12:35:02;;;;;;;12.15;2.03;;;12.40;99.90;;;;;;5027167;28;20037;-85
2023/10/28 12:37:28;;;;;;;12.52;2.17;;;12.40;99.90;;;;;;5025288;28;20045;-86
2023/10/28 12:39:56;;;;;;;11.40;2.38;;;12.50;99.90;;;;;;5024070;28;20035;-85
2023/10/28 12:42:21;;;;;;;5.40;2.53;;;12.40;99.90;;;;;;5027621;28;20064;-86
2023/10/28 12:44:47;;;;;;;3.45;1.13;;;12.40;99.90;;;;;;5025018;28;20049;-86